createdAt,value
2022-12-13T00:01:47.863Z,11.57
2022-12-13T00:04:16.328Z,10.48
2022-12-13T00:06:44.943Z,9.63
2022-12-13T00:09:15.177Z,9.50
2022-12-13T00:11:43.303Z,10.40
2022-12-13T00:14:11.662Z,10.07
2022-12-13T00:16:41.750Z,9.97
2022-12-13T00:19:09.795Z,11.25
2022-12-13T00:21:37.883Z,10.13
2022-12-13T00:24:08.522Z,9.85
2022-12-13T00:26:36.992Z,10.77
2022-12-13T00:29:07.261Z,10.15
2022-12-13T00:31:59.378Z,10.85
2022-12-13T00:34:26.906Z,10.98
2022-12-13T00:36:55.440Z,9.98
2022-12-13T00:39:23.751Z,9.93
2022-12-13T00:41:52.247Z,9.85
2022-12-13T00:44:20.628Z,10.03
2022-12-13T00:46:51.641Z,11.05
2022-12-13T00:49:20.030Z,10.30
2022-12-13T00:51:50.180Z,10.40
2022-12-13T00:54:18.954Z,10.52
2022-12-13T00:56:47.158Z,11.45
2022-12-13T00:59:16.223Z,9.68
2022-12-13T01:01:44.539Z,10.18
2022-12-13T01:04:13.362Z,10.68
2022-12-13T01:06:43.523Z,12.07
2022-12-13T01:09:18.226Z,10.73
2022-12-13T01:11:46.843Z,9.95
2022-12-13T01:14:15.404Z,10.88
2022-12-13T01:16:43.603Z,9.70
2022-12-13T01:19:11.738Z,10.57
2022-12-13T01:21:39.849Z,8.80
2022-12-13T01:24:08.598Z,9.52
2022-12-13T01:26:38.485Z,10.32
2022-12-13T01:29:06.709Z,9.98
2022-12-13T01:31:34.820Z,9.15
2022-12-13T01:34:10.314Z,9.20
2022-12-13T01:36:39.684Z,11.40
2022-12-13T01:39:14.884Z,10.32
2022-12-13T01:41:45.747Z,8.70
2022-12-13T01:44:51.332Z,9.80
2022-12-13T01:47:21.952Z,11.02
2022-12-13T01:49:51.230Z,8.90
2022-12-13T01:52:19.717Z,8.85
2022-12-13T01:54:52.219Z,9.15
2022-12-13T01:57:23.934Z,9.95
2022-12-13T01:59:53.790Z,10.18
2022-12-13T02:02:22.559Z,8.80
2022-12-13T02:04:57.235Z,9.38
2022-12-13T02:07:36.185Z,9.43
2022-12-13T02:10:07.282Z,8.23
2022-12-13T02:12:39.202Z,8.07
2022-12-13T02:15:11.742Z,9.15
2022-12-13T02:18:02.909Z,8.48
2022-12-13T02:21:02.594Z,8.88
2022-12-13T02:24:10.104Z,9.10
2022-12-13T02:26:57.749Z,8.00
2022-12-13T02:29:58.587Z,8.65
2022-12-13T02:32:32.953Z,8.70
2022-12-13T02:35:07.714Z,7.90
2022-12-13T02:37:46.102Z,7.65
2022-12-13T02:40:21.570Z,7.00
2022-12-13T02:42:58.211Z,8.45
2022-12-13T02:45:31.075Z,7.03
2022-12-13T02:48:04.830Z,8.10
2022-12-13T02:50:35.185Z,8.75
2022-12-13T02:53:04.657Z,8.40
2022-12-13T02:55:35.827Z,7.72
2022-12-13T02:58:03.864Z,8.68
2022-12-13T03:00:42.489Z,7.28
2022-12-13T03:03:26.587Z,6.88
2022-12-13T03:06:21.507Z,6.78
2022-12-13T03:08:56.969Z,7.75
2022-12-13T03:11:50.017Z,7.55
2022-12-13T03:14:21.392Z,9.00
2022-12-13T03:16:52.706Z,7.30
2022-12-13T03:19:22.734Z,7.85
2022-12-13T03:21:51.377Z,6.20
2022-12-13T03:24:21.573Z,8.77
2022-12-13T03:26:51.112Z,8.15
2022-12-13T03:29:23.529Z,9.00
2022-12-13T03:31:53.156Z,7.65
2022-12-13T03:34:23.662Z,7.95
2022-12-13T03:36:52.298Z,7.93
2022-12-13T03:39:21.187Z,8.55
2022-12-13T03:41:49.670Z,8.20
2022-12-13T03:44:17.812Z,8.63
2022-12-13T03:46:45.848Z,8.95
2022-12-13T03:49:17.290Z,8.23
2022-12-13T03:51:47.895Z,7.57
2022-12-13T03:54:16.075Z,6.80
2022-12-13T03:56:44.351Z,6.78
2022-12-13T03:59:12.384Z,6.60
2022-12-13T04:01:40.488Z,6.55
2022-12-13T04:04:08.741Z,7.13
2022-12-13T04:06:37.529Z,7.10
2022-12-13T04:09:07.023Z,6.82
2022-12-13T04:11:52.794Z,6.70
2022-12-13T04:14:22.000Z,7.10
2022-12-13T04:16:51.506Z,6.75
2022-12-13T04:19:23.315Z,6.60
2022-12-13T04:21:54.258Z,7.70
2022-12-13T04:24:30.879Z,6.72
2022-12-13T04:27:00.759Z,7.30
2022-12-13T04:29:34.266Z,7.30
2022-12-13T04:32:03.641Z,7.82
2022-12-13T04:34:36.886Z,7.72
2022-12-13T04:37:06.062Z,7.60
2022-12-13T04:39:35.634Z,8.70
2022-12-13T04:42:04.496Z,8.35
2022-12-13T04:44:36.899Z,8.65
2022-12-13T04:47:05.644Z,8.57
2022-12-13T04:49:34.274Z,7.45
2022-12-13T04:52:03.212Z,7.72
2022-12-13T04:54:36.000Z,7.13
2022-12-13T04:57:08.695Z,6.75
2022-12-13T04:59:37.254Z,8.15
2022-12-13T05:02:07.014Z,7.55
2022-12-13T05:04:35.587Z,7.57
2022-12-13T05:07:04.458Z,6.95
2022-12-13T05:09:32.752Z,6.32
2022-12-13T05:12:01.247Z,6.20
2022-12-13T05:14:31.512Z,6.88
2022-12-13T05:17:00.086Z,7.20
2022-12-13T05:19:31.329Z,6.65
2022-12-13T05:22:01.062Z,7.15
2022-12-13T05:24:30.737Z,7.32
2022-12-13T05:26:59.067Z,6.90
2022-12-13T05:29:28.288Z,6.88
2022-12-13T05:31:57.809Z,7.82
2022-12-13T05:34:26.074Z,7.70
2022-12-13T05:36:54.336Z,6.90
2022-12-13T05:39:27.919Z,6.80
2022-12-13T05:42:01.837Z,7.65
2022-12-13T05:44:31.476Z,7.50
2022-12-13T05:47:02.165Z,34.97
2022-12-13T05:49:32.203Z,7.18
2022-12-13T05:52:00.577Z,7.40
2022-12-13T05:54:28.928Z,8.60
2022-12-13T05:56:57.445Z,7.63
2022-12-13T05:59:25.508Z,7.70
2022-12-13T06:01:53.542Z,8.32
2022-12-13T06:04:23.614Z,9.23
2022-12-13T06:06:52.403Z,8.85
2022-12-13T06:09:21.510Z,8.50
2022-12-13T06:11:49.812Z,7.32
2022-12-13T06:14:22.343Z,5.85
2022-12-13T06:16:52.597Z,7.95
2022-12-13T06:19:23.095Z,6.85
2022-12-13T06:21:51.618Z,8.70
2022-12-13T06:24:21.554Z,10.25
2022-12-13T06:26:50.595Z,13.40
2022-12-13T06:29:24.266Z,12.65
2022-12-13T06:32:02.403Z,13.10
2022-12-13T06:34:34.400Z,9.98
2022-12-13T06:37:03.973Z,8.50
2022-12-13T06:39:33.529Z,9.40
2022-12-13T06:42:03.202Z,8.40
2022-12-13T06:44:31.821Z,9.65
2022-12-13T06:47:10.457Z,8.55
2022-12-13T06:49:44.383Z,9.77
2022-12-13T06:52:14.806Z,9.75
2022-12-13T06:54:43.827Z,10.38
2022-12-13T06:57:12.777Z,10.23
2022-12-13T06:59:41.489Z,10.60
2022-12-13T07:02:24.639Z,10.25
2022-12-13T07:04:56.439Z,10.90
2022-12-13T07:07:26.038Z,10.15
2022-12-13T07:09:54.771Z,12.07
2022-12-13T07:12:23.104Z,11.07
2022-12-13T07:14:51.245Z,10.40
2022-12-13T07:17:33.803Z,9.50
2022-12-13T07:20:07.805Z,9.32
2022-12-13T07:22:42.973Z,9.65
2022-12-13T07:25:27.702Z,11.07
2022-12-13T07:28:01.366Z,9.85
2022-12-13T07:30:31.814Z,11.63
2022-12-13T07:32:59.985Z,10.90
2022-12-13T07:35:30.220Z,11.50
2022-12-13T07:37:58.332Z,10.52
2022-12-13T07:40:26.847Z,12.57
2022-12-13T07:42:56.324Z,11.80
2022-12-13T07:45:26.691Z,12.05
2022-12-13T07:47:54.821Z,12.98
2022-12-13T07:50:29.489Z,11.68
2022-12-13T07:53:10.127Z,12.82
2022-12-13T07:55:39.267Z,11.70
2022-12-13T07:58:08.970Z,13.85
2022-12-13T08:00:37.791Z,12.68
2022-12-13T08:03:06.661Z,13.00
2022-12-13T08:05:38.943Z,12.30
2022-12-13T08:08:11.722Z,12.43
2022-12-13T08:10:40.307Z,12.50
2022-12-13T08:13:08.508Z,11.45
2022-12-13T08:15:36.595Z,11.45
2022-12-13T08:18:05.126Z,12.05
2022-12-13T08:20:33.463Z,12.00
2022-12-13T08:23:02.461Z,13.18
2022-12-13T08:25:32.834Z,11.85
2022-12-13T08:28:02.161Z,12.63
2022-12-13T08:30:32.354Z,12.45
2022-12-13T08:33:04.906Z,12.70
2022-12-13T08:35:35.120Z,14.13
2022-12-13T08:38:03.869Z,14.13
2022-12-13T08:40:34.845Z,14.73
2022-12-13T08:43:03.030Z,14.07
2022-12-13T08:45:32.142Z,13.48
2022-12-13T08:48:00.813Z,14.32
2022-12-13T08:50:29.344Z,15.70
2022-12-13T08:52:58.641Z,14.45
2022-12-13T08:55:31.532Z,13.50
2022-12-13T08:58:06.937Z,13.05
2022-12-13T09:00:36.269Z,13.18
2022-12-13T09:03:05.532Z,14.95
2022-12-13T09:05:38.692Z,14.52
2022-12-13T09:08:23.308Z,13.75
2022-12-13T09:10:59.942Z,12.88
2022-12-13T09:13:31.401Z,12.70
2022-12-13T09:16:04.198Z,12.65
2022-12-13T09:18:36.517Z,11.45
2022-12-13T09:21:10.908Z,12.55
2022-12-13T09:23:46.303Z,11.90
2022-12-13T09:26:17.131Z,12.38
2022-12-13T09:28:46.667Z,12.00
2022-12-13T09:31:16.292Z,13.93
2022-12-13T09:33:45.011Z,13.07
2022-12-13T09:36:16.762Z,14.07
2022-12-13T09:38:45.076Z,12.13
2022-12-13T09:41:28.863Z,13.50
2022-12-13T09:44:05.735Z,11.98
2022-12-13T09:46:44.139Z,12.50
2022-12-13T09:49:23.081Z,14.63
2022-12-13T09:52:11.228Z,13.80
2022-12-13T09:54:48.375Z,12.63
2022-12-13T09:57:33.043Z,14.73
2022-12-13T10:00:10.954Z,12.60
2022-12-13T10:02:45.303Z,11.90
2022-12-13T10:05:21.578Z,13.85
2022-12-13T10:07:54.028Z,11.65
2022-12-13T10:10:22.647Z,16.50
2022-12-13T10:12:57.075Z,13.95
2022-12-13T10:15:28.917Z,15.35
2022-12-13T10:17:57.209Z,14.60
2022-12-13T10:20:28.961Z,12.67
2022-12-13T10:25:50.985Z,11.43
2022-12-13T10:28:26.614Z,14.40
2022-12-13T10:30:57.395Z,16.33
2022-12-13T10:33:27.365Z,14.03
2022-12-13T10:36:08.693Z,12.10
2022-12-13T10:38:39.314Z,15.50
2022-12-13T10:41:29.274Z,14.00
2022-12-13T10:44:19.842Z,12.15
2022-12-13T10:47:01.194Z,13.03
2022-12-13T10:49:36.850Z,14.30
2022-12-13T10:52:05.246Z,12.90
2022-12-13T10:54:38.535Z,14.17
2022-12-13T10:57:12.466Z,13.67
2022-12-13T10:59:41.387Z,13.53
2022-12-13T11:02:33.125Z,11.97
2022-12-13T11:05:23.300Z,10.87
2022-12-13T11:07:52.122Z,12.00
2022-12-13T11:10:27.620Z,10.70
2022-12-13T11:13:02.682Z,11.47
2022-12-13T11:15:33.099Z,9.43
2022-12-13T11:18:05.635Z,10.67
2022-12-13T11:20:36.779Z,8.23
2022-12-13T11:23:07.035Z,11.23
2022-12-13T11:25:41.233Z,12.43
2022-12-13T11:28:27.656Z,11.47
2022-12-13T11:31:07.338Z,9.97
2022-12-13T11:33:47.605Z,10.70
2022-12-13T11:36:28.714Z,12.27
2022-12-13T11:39:07.663Z,9.57
2022-12-13T11:41:41.316Z,11.10
2022-12-13T11:44:16.339Z,12.77
2022-12-13T11:46:49.112Z,11.90
2022-12-13T11:49:20.433Z,11.30
2022-12-13T11:51:53.106Z,11.40
2022-12-13T11:54:26.695Z,11.60
2022-12-13T11:57:00.648Z,9.90
2022-12-13T11:59:40.285Z,8.97
2022-12-13T12:02:16.915Z,9.30
2022-12-13T12:04:52.563Z,8.03
2022-12-13T12:07:33.272Z,8.30
2022-12-13T12:10:17.040Z,9.20
2022-12-13T12:12:49.587Z,8.77
2022-12-13T12:15:26.698Z,8.30
2022-12-13T12:17:56.355Z,7.83
2022-12-13T12:20:38.254Z,7.67
2022-12-13T12:23:13.862Z,9.33
2022-12-13T12:25:50.847Z,8.77
2022-12-13T12:28:31.158Z,9.27
2022-12-13T12:31:05.865Z,9.40
2022-12-13T12:33:46.203Z,8.90
2022-12-13T12:36:33.414Z,8.70
2022-12-13T12:39:35.319Z,9.53
2022-12-13T12:42:27.726Z,8.63
2022-12-13T12:45:17.583Z,9.17
2022-12-13T12:51:03.064Z,8.80
2022-12-13T12:53:42.836Z,8.70
2022-12-13T12:56:25.255Z,11.50
2022-12-13T12:58:59.870Z,11.10
2022-12-13T13:01:43.301Z,10.63
2022-12-13T13:04:22.052Z,11.60
2022-12-13T13:07:01.835Z,11.80
2022-12-13T13:09:32.800Z,11.70
2022-12-13T13:12:09.554Z,11.23
2022-12-13T13:14:53.404Z,11.50
2022-12-13T13:17:46.418Z,12.97
2022-12-13T13:20:20.475Z,13.17
2022-12-13T13:23:03.976Z,13.80
2022-12-13T13:26:00.276Z,13.10
2022-12-13T13:28:27.207Z,12.00
2022-12-13T13:31:05.293Z,12.00
2022-12-13T13:33:50.298Z,11.07
2022-12-13T13:36:46.525Z,11.80
2022-12-13T13:39:19.527Z,12.40
2022-12-13T13:42:19.263Z,12.50
2022-12-13T13:45:04.305Z,13.13
2022-12-13T13:47:44.435Z,11.63
2022-12-13T13:50:43.222Z,11.20
2022-12-13T13:53:34.090Z,11.83
2022-12-13T13:56:20.804Z,12.30
2022-12-13T14:02:11.383Z,12.40
2022-12-13T14:05:18.942Z,12.43
2022-12-13T14:08:01.798Z,12.17
2022-12-13T14:10:50.684Z,12.07
2022-12-13T14:13:52.151Z,12.77
2022-12-13T14:17:05.785Z,13.37
2022-12-13T14:20:07.668Z,12.60
2022-12-13T14:22:41.944Z,11.30
2022-12-13T14:25:45.118Z,12.03
2022-12-13T14:28:27.235Z,10.37
2022-12-13T14:30:57.705Z,11.87
2022-12-13T14:33:28.303Z,12.50
2022-12-13T14:35:58.940Z,12.47
2022-12-13T14:38:31.232Z,13.50
2022-12-13T14:41:01.798Z,13.03
2022-12-13T14:43:31.804Z,12.50
2022-12-13T14:46:01.611Z,12.97
2022-12-13T14:48:34.173Z,13.30
2022-12-13T14:51:02.648Z,11.97
2022-12-13T14:53:38.011Z,12.03
2022-12-13T14:56:09.141Z,12.20
2022-12-13T14:58:38.300Z,11.83
2022-12-13T15:01:07.624Z,12.87
2022-12-13T15:03:36.684Z,13.27
2022-12-13T15:06:05.776Z,12.63
2022-12-13T15:08:38.215Z,13.00
2022-12-13T15:11:10.185Z,12.80
2022-12-13T15:13:42.874Z,14.60
2022-12-13T15:16:17.081Z,13.03
2022-12-13T15:19:10.997Z,11.93
2022-12-13T15:21:42.861Z,12.80
2022-12-13T15:24:15.982Z,13.10
2022-12-13T15:26:47.768Z,12.83
2022-12-13T15:29:20.554Z,14.87
2022-12-13T15:31:49.190Z,13.60
2022-12-13T15:34:32.876Z,12.40
2022-12-13T15:37:03.436Z,12.83
2022-12-13T15:39:38.875Z,13.60
2022-12-13T15:42:08.160Z,14.23
2022-12-13T15:44:47.926Z,12.63
2022-12-13T15:47:28.708Z,12.90
2022-12-13T15:49:58.847Z,12.60
2022-12-13T15:52:31.772Z,13.50
2022-12-13T15:55:04.356Z,14.23
2022-12-13T15:57:34.099Z,12.10
2022-12-13T16:00:30.753Z,12.63
2022-12-13T16:03:09.475Z,13.50
2022-12-13T16:05:40.658Z,12.40
2022-12-13T16:08:23.028Z,14.93
2022-12-13T16:10:53.996Z,14.57
2022-12-13T16:13:26.833Z,14.23
2022-12-13T16:15:59.984Z,13.10
2022-12-13T16:18:44.701Z,14.40
2022-12-13T16:21:14.337Z,17.70
2022-12-13T16:23:48.466Z,14.90
2022-12-13T16:26:23.095Z,13.40
2022-12-13T16:28:51.513Z,12.90
2022-12-13T16:31:25.465Z,13.67
2022-12-13T16:33:53.659Z,13.80
2022-12-13T16:36:21.918Z,11.90
2022-12-13T16:38:50.729Z,13.07
2022-12-13T16:41:21.967Z,13.80
2022-12-13T16:43:55.941Z,11.70
2022-12-13T16:47:14.383Z,11.83
2022-12-13T16:49:21.475Z,11.50
2022-12-13T16:51:50.279Z,12.13
2022-12-13T16:54:19.816Z,12.33
2022-12-13T16:56:49.585Z,13.40
2022-12-13T16:59:19.329Z,11.90
2022-12-13T17:01:47.980Z,13.33
2022-12-13T17:04:21.125Z,10.00
2022-12-13T17:06:51.037Z,12.00
2022-12-13T17:09:24.183Z,11.20
2022-12-13T17:11:54.044Z,11.13
2022-12-13T17:14:22.095Z,11.57
2022-12-13T17:16:51.244Z,11.17
2022-12-13T17:19:19.715Z,13.43
2022-12-13T17:21:49.325Z,13.97
2022-12-13T17:24:17.523Z,12.83
2022-12-13T17:26:53.932Z,12.90
2022-12-13T17:29:24.896Z,12.63
2022-12-13T17:31:53.348Z,11.93
2022-12-13T17:34:21.431Z,12.83
2022-12-13T17:36:49.492Z,11.47
2022-12-13T17:39:17.655Z,12.87
2022-12-13T17:41:54.766Z,15.03
2022-12-13T17:44:26.068Z,13.53
2022-12-13T17:46:55.790Z,12.73
2022-12-13T17:49:24.666Z,13.07
2022-12-13T17:51:54.192Z,13.57
2022-12-13T17:54:23.746Z,13.37
2022-12-13T17:56:52.325Z,13.50
2022-12-13T17:59:20.695Z,18.50
2022-12-13T18:01:50.565Z,15.70
2022-12-13T18:04:18.878Z,16.17
2022-12-13T18:06:47.053Z,15.00
2022-12-13T18:09:15.268Z,15.70
2022-12-13T18:11:43.449Z,14.70
2022-12-13T18:14:11.707Z,16.00
2022-12-13T18:16:40.529Z,15.97
2022-12-13T18:19:13.421Z,15.20
2022-12-13T18:21:43.187Z,13.47
2022-12-13T18:24:12.154Z,13.23
2022-12-13T18:26:40.411Z,15.03
2022-12-13T18:29:08.564Z,21.83
2022-12-13T18:31:36.737Z,22.90
2022-12-13T18:34:05.092Z,18.30
2022-12-13T18:36:35.134Z,30.03
2022-12-13T18:39:03.669Z,22.57
2022-12-13T18:41:32.260Z,23.17
2022-12-13T18:44:02.241Z,17.40
2022-12-13T18:46:31.984Z,13.00
2022-12-13T18:49:00.554Z,14.60
2022-12-13T18:51:28.912Z,13.70
2022-12-13T18:53:58.426Z,13.97
2022-12-13T18:56:27.909Z,11.70
2022-12-13T18:58:56.805Z,11.60
2022-12-13T19:01:27.153Z,13.50
2022-12-13T19:03:56.004Z,12.00
2022-12-13T19:06:25.920Z,14.10
2022-12-13T19:08:55.579Z,13.50
2022-12-13T19:11:27.455Z,11.93
2022-12-13T19:13:56.506Z,11.77
2022-12-13T19:16:25.558Z,10.93
2022-12-13T19:18:54.084Z,11.97
2022-12-13T19:21:23.547Z,12.00
2022-12-13T19:23:57.348Z,12.10
2022-12-13T19:26:28.639Z,11.47
2022-12-13T19:28:58.144Z,12.37
2022-12-13T19:31:31.085Z,10.90
2022-12-13T19:34:01.076Z,9.60
2022-12-13T19:36:29.161Z,10.80
2022-12-13T19:38:57.466Z,9.80
2022-12-13T19:41:27.296Z,10.37
2022-12-13T19:43:55.388Z,11.20
2022-12-13T19:46:23.554Z,11.50
2022-12-13T19:48:51.931Z,11.63
2022-12-13T19:51:21.485Z,12.40
2022-12-13T19:53:50.080Z,11.50
2022-12-13T19:56:19.792Z,9.67
2022-12-13T19:58:50.287Z,9.33
2022-12-13T20:01:19.204Z,9.83
2022-12-13T20:03:47.715Z,11.90
2022-12-13T20:06:17.445Z,10.80
2022-12-13T20:08:46.030Z,11.70
2022-12-13T20:11:17.167Z,10.90
2022-12-13T20:13:45.339Z,10.30
2022-12-13T20:16:18.161Z,10.17
2022-12-13T20:18:47.470Z,8.67
2022-12-13T20:21:16.342Z,10.60
2022-12-13T20:23:48.925Z,10.13
2022-12-13T20:26:20.836Z,10.50
2022-12-13T20:28:49.714Z,9.80
2022-12-13T20:31:20.990Z,10.00
2022-12-13T20:33:49.804Z,12.13
2022-12-13T20:36:25.029Z,10.60
2022-12-13T20:38:55.748Z,13.53
2022-12-13T20:41:24.957Z,9.77
2022-12-13T20:43:53.791Z,10.63
2022-12-13T20:46:24.139Z,10.20
2022-12-13T20:48:53.117Z,11.23
2022-12-13T20:51:23.825Z,9.97
2022-12-13T20:53:53.033Z,10.23
2022-12-13T20:56:23.124Z,9.03
2022-12-13T20:58:52.016Z,10.00
2022-12-13T21:01:21.982Z,10.90
2022-12-13T21:03:54.159Z,9.70
2022-12-13T21:06:22.506Z,9.47
2022-12-13T21:08:54.415Z,10.87
2022-12-13T21:11:27.525Z,9.97
2022-12-13T21:14:06.910Z,9.70
2022-12-13T21:16:39.351Z,10.27
2022-12-13T21:19:10.351Z,9.13
2022-12-13T21:21:38.982Z,11.30
2022-12-13T21:24:08.180Z,10.87
2022-12-13T21:26:37.009Z,10.67
2022-12-13T21:29:07.439Z,11.10
2022-12-13T21:31:36.658Z,11.43
2022-12-13T21:34:06.169Z,9.10
2022-12-13T21:36:37.571Z,11.23
2022-12-13T21:39:08.451Z,10.20
2022-12-13T21:41:36.895Z,10.50
2022-12-13T21:44:05.531Z,12.70
2022-12-13T21:47:10.123Z,13.50
2022-12-13T21:49:22.343Z,11.40
2022-12-13T21:51:52.062Z,11.77
2022-12-13T21:54:20.717Z,11.30
2022-12-13T21:57:06.305Z,10.17
2022-12-13T21:59:34.395Z,11.30
2022-12-13T22:02:14.835Z,11.63
2022-12-13T22:04:44.951Z,10.33
2022-12-13T22:07:16.736Z,11.50
2022-12-13T22:09:57.534Z,12.93
2022-12-13T22:12:29.325Z,11.70
2022-12-13T22:14:58.459Z,10.97
2022-12-13T22:17:35.526Z,11.00
2022-12-13T22:20:08.219Z,10.73
2022-12-13T22:22:40.668Z,11.07
2022-12-13T22:25:13.364Z,11.53
2022-12-13T22:27:42.980Z,10.80
2022-12-13T22:30:12.528Z,11.37
2022-12-13T22:32:44.210Z,11.13
2022-12-13T22:35:15.329Z,11.50
2022-12-13T22:37:46.012Z,10.53
2022-12-13T22:40:18.574Z,10.90
2022-12-13T22:42:48.315Z,11.77
2022-12-13T22:45:17.377Z,11.53
2022-12-13T22:47:45.996Z,12.30
2022-12-13T22:50:14.639Z,11.60
2022-12-13T22:52:44.881Z,12.60
2022-12-13T22:55:16.814Z,13.30
2022-12-13T22:57:49.717Z,13.13
2022-12-13T23:00:18.968Z,12.50
2022-12-13T23:02:53.656Z,13.03
2022-12-13T23:05:22.551Z,12.20
2022-12-13T23:07:53.549Z,12.20
2022-12-13T23:10:49.130Z,12.37
2022-12-13T23:13:19.737Z,11.83
2022-12-13T23:15:49.638Z,12.70
2022-12-13T23:18:18.160Z,12.33
2022-12-13T23:20:48.453Z,11.80
2022-12-13T23:23:20.494Z,11.60
2022-12-13T23:25:49.286Z,12.23
2022-12-13T23:28:18.272Z,11.33
2022-12-13T23:30:47.871Z,13.87
2022-12-13T23:33:16.597Z,12.70
2022-12-13T23:35:45.748Z,11.70
2022-12-13T23:38:15.591Z,12.73
2022-12-13T23:40:47.297Z,14.03
2022-12-13T23:43:15.873Z,13.53
2022-12-13T23:45:45.160Z,13.90
2022-12-13T23:48:14.145Z,12.97
2022-12-13T23:50:43.500Z,13.80
2022-12-13T23:53:12.983Z,12.90
2022-12-13T23:55:41.512Z,12.80
2022-12-13T23:58:11.696Z,12.93
